createdAt,value
2022-11-01T00:01:29.447Z,100984.78
2022-11-01T00:04:31.123Z,100976.88
2022-11-01T00:07:32.656Z,100982.31
2022-11-01T00:10:34.173Z,100982.44
2022-11-01T00:13:35.754Z,100973.66
2022-11-01T00:16:37.254Z,100982.50
2022-11-01T00:19:38.793Z,100974.72
2022-11-01T00:22:40.343Z,100972.06
2022-11-01T00:25:41.910Z,100966.72
2022-11-01T00:28:43.720Z,100957.88
2022-11-01T00:31:45.247Z,100957.03
2022-11-01T00:34:46.815Z,100955.31
2022-11-01T00:37:48.393Z,100948.28
2022-11-01T00:40:49.943Z,100949.97
2022-11-01T00:43:51.502Z,100947.31
2022-11-01T00:46:53.121Z,100947.31
2022-11-01T00:49:54.660Z,100938.38
2022-11-01T00:52:56.188Z,100938.38
2022-11-01T00:56:02.186Z,100929.38
2022-11-01T00:59:04.050Z,100922.38
2022-11-01T01:02:05.723Z,100914.38
2022-11-01T01:05:08.683Z,100909.03
2022-11-01T01:08:10.277Z,100908.28
2022-11-01T01:11:11.835Z,100889.72
2022-11-01T01:14:13.379Z,100893.38
2022-11-01T01:17:15.226Z,100893.44
2022-11-01T01:20:16.860Z,100896.84
2022-11-01T01:23:18.471Z,100908.28
2022-11-01T01:26:20.758Z,100892.38
2022-11-01T01:29:22.363Z,100879.25
2022-11-01T01:32:24.343Z,100876.72
2022-11-01T01:35:25.866Z,100871.38
2022-11-01T01:38:27.662Z,100865.94
2022-11-01T01:41:47.498Z,100857.94
2022-11-01T01:44:50.233Z,100858.91
2022-11-01T01:47:54.420Z,100862.44
2022-11-01T01:51:05.107Z,100851.53
2022-11-01T01:54:06.719Z,100854.19
2022-11-01T01:57:09.209Z,100858.47
2022-11-01T02:00:11.600Z,100852.06
2022-11-01T02:03:14.635Z,100850.19
2022-11-01T02:06:18.788Z,100850.91
2022-11-01T02:09:21.053Z,100846.19
2022-11-01T02:12:30.311Z,100834.59
2022-11-01T02:15:43.174Z,100829.03
2022-11-01T02:19:07.323Z,100828.91
2022-11-01T02:22:39.592Z,100821.66
2022-11-01T02:25:56.194Z,100817.06
2022-11-01T02:29:05.740Z,100818.66
2022-11-01T02:32:21.752Z,100820.25
2022-11-01T02:35:41.838Z,100805.03
2022-11-01T02:38:57.629Z,100791.34
2022-11-01T02:42:06.367Z,100793.03
2022-11-01T02:45:28.955Z,100784.94
2022-11-01T02:48:30.629Z,100780.34
2022-11-01T02:51:33.398Z,100785.59
2022-11-01T02:54:45.512Z,100788.03
2022-11-01T02:57:47.845Z,100783.69
2022-11-01T03:00:49.682Z,100776.50
2022-11-01T03:03:53.812Z,100773.75
2022-11-01T03:07:01.352Z,100772.69
2022-11-01T03:10:03.204Z,100759.34
2022-11-01T03:13:29.225Z,100767.34
2022-11-01T03:16:51.034Z,100757.50
2022-11-01T03:20:01.629Z,100759.34
2022-11-01T03:23:05.684Z,100775.34
2022-11-01T03:26:12.567Z,100772.56
2022-11-01T03:29:16.370Z,100764.41
2022-11-01T03:32:19.754Z,100754.59
2022-11-01T03:35:39.653Z,100753.53
2022-11-01T03:38:48.937Z,100734.97
2022-11-01T03:41:56.788Z,100737.53
2022-11-01T03:45:03.243Z,100741.19
2022-11-01T03:48:05.997Z,100744.56
2022-11-01T03:51:07.931Z,100744.56
2022-11-01T03:54:11.200Z,100752.38
2022-11-01T03:57:12.878Z,100744.09
2022-11-01T04:00:17.090Z,100736.88
2022-11-01T04:03:18.675Z,100726.91
2022-11-01T04:06:20.216Z,100735.78
2022-11-01T04:09:21.759Z,100740.13
2022-11-01T04:12:23.412Z,100737.25
2022-11-01T04:15:44.588Z,100728.16
2022-11-01T04:19:04.799Z,100721.88
2022-11-01T04:22:06.339Z,100726.13
2022-11-01T04:25:08.135Z,100725.88
2022-11-01T04:28:09.658Z,100729.19
2022-11-01T04:31:12.021Z,100738.66
2022-11-01T04:34:13.559Z,100752.63
2022-11-01T04:37:15.092Z,100755.81
2022-11-01T04:40:16.847Z,100754.72
2022-11-01T04:43:18.410Z,100761.53
2022-11-01T04:46:20.275Z,100755.97
2022-11-01T04:49:21.881Z,100757.56
2022-11-01T04:52:23.640Z,100760.00
2022-11-01T04:55:25.976Z,100759.88
2022-11-01T04:58:27.555Z,100757.06
2022-11-01T05:01:29.255Z,100754.31
2022-11-01T05:04:30.815Z,100763.91
2022-11-01T05:07:32.379Z,100757.47
2022-11-01T05:10:35.617Z,100753.00
2022-11-01T05:13:37.112Z,100753.81
2022-11-01T05:16:38.647Z,100752.84
2022-11-01T05:19:40.264Z,100751.91
2022-11-01T05:22:41.794Z,100754.56
2022-11-01T05:25:43.667Z,100751.91
2022-11-01T05:28:45.194Z,100756.25
2022-11-01T05:31:47.123Z,100745.56
2022-11-01T05:34:49.922Z,100742.03
2022-11-01T05:37:51.608Z,100736.97
2022-11-01T05:40:53.119Z,100742.31
2022-11-01T05:43:54.657Z,100734.16
2022-11-01T05:46:56.267Z,100740.66
2022-11-01T05:49:57.783Z,100738.84
2022-11-01T05:53:10.267Z,100737.97
2022-11-01T05:56:12.103Z,100737.25
2022-11-01T05:59:13.671Z,100742.59
2022-11-01T06:02:15.262Z,100754.13
2022-11-01T06:05:16.982Z,100749.66
2022-11-01T06:08:19.935Z,100753.66
2022-11-01T06:11:21.588Z,100755.34
2022-11-01T06:14:23.291Z,100762.50
2022-11-01T06:17:25.060Z,100754.41
2022-11-01T06:20:31.672Z,100757.94
2022-11-01T06:23:33.186Z,100752.59
2022-11-01T06:26:34.762Z,100763.28
2022-11-01T06:29:36.270Z,100764.13
2022-11-01T06:32:37.888Z,100760.50
2022-11-01T06:35:39.480Z,100765.50
2022-11-01T06:38:41.028Z,100769.28
2022-11-01T06:41:42.594Z,100773.19
2022-11-01T06:44:44.093Z,100779.25
2022-11-01T06:47:48.733Z,100785.59
2022-11-01T06:50:50.562Z,100792.03
2022-11-01T06:53:52.076Z,100803.81
2022-11-01T06:56:53.566Z,100796.75
2022-11-01T06:59:55.140Z,100797.00
2022-11-01T07:03:02.288Z,100806.00
2022-11-01T07:06:04.046Z,100810.50
2022-11-01T07:09:05.705Z,100811.34
2022-11-01T07:12:07.264Z,100825.31
2022-11-01T07:15:09.071Z,100824.22
2022-11-01T07:18:11.028Z,100824.13
2022-11-01T07:21:12.679Z,100820.47
2022-11-01T07:24:14.270Z,100820.34
2022-11-01T07:27:20.243Z,100832.72
2022-11-01T07:30:22.716Z,100841.47
2022-11-01T07:33:24.355Z,100842.25
2022-11-01T07:36:25.907Z,100834.09
2022-11-01T07:39:27.436Z,100841.00
2022-11-01T07:42:29.488Z,100846.13
2022-11-01T07:45:33.530Z,100842.38
2022-11-01T07:48:36.964Z,100849.28
2022-11-01T07:51:38.714Z,100837.59
2022-11-01T07:54:40.394Z,100849.66
2022-11-01T07:57:41.987Z,100849.41
2022-11-01T08:00:44.537Z,100854.53
2022-11-01T08:03:46.270Z,100858.78
2022-11-01T08:06:49.785Z,100857.41
2022-11-01T08:09:53.678Z,100859.53
2022-11-01T08:13:21.058Z,100865.25
2022-11-01T08:16:22.584Z,100864.88
2022-11-01T08:19:24.135Z,100877.03
2022-11-01T08:22:25.722Z,100880.34
2022-11-01T08:25:27.271Z,100879.97
2022-11-01T08:28:30.436Z,100882.97
2022-11-01T08:31:32.019Z,100890.66
2022-11-01T08:34:33.742Z,100900.88
2022-11-01T08:37:35.344Z,100913.06
2022-11-01T08:40:36.862Z,100917.88
2022-11-01T08:43:40.579Z,100931.63
2022-11-01T08:46:43.709Z,100926.03
2022-11-01T08:49:45.774Z,100933.97
2022-11-01T08:52:47.334Z,100938.47
2022-11-01T08:55:54.693Z,100935.88
2022-11-01T08:58:56.724Z,100936.03
2022-11-01T09:01:58.360Z,100941.91
2022-11-01T09:05:02.818Z,100939.56
2022-11-01T09:08:04.899Z,100942.63
2022-11-01T09:11:06.862Z,100942.13
2022-11-01T09:14:09.185Z,100941.41
2022-11-01T09:17:10.750Z,100957.63
2022-11-01T09:20:12.513Z,100963.56
2022-11-01T09:23:14.035Z,100965.03
2022-11-01T09:26:15.708Z,100969.88
2022-11-01T09:29:18.992Z,100973.91
2022-11-01T09:32:21.282Z,100981.44
2022-11-01T09:35:22.880Z,100994.34
2022-11-01T09:38:24.568Z,101000.19
2022-11-01T09:41:47.241Z,101009.44
2022-11-01T09:44:53.894Z,101015.88
2022-11-01T09:47:57.738Z,101018.94
2022-11-01T09:51:03.019Z,101025.72
2022-11-01T09:54:04.720Z,101019.56
2022-11-01T09:57:17.009Z,101030.22
2022-11-01T10:00:20.766Z,101040.78
2022-11-01T10:03:33.687Z,101044.97
2022-11-01T10:06:42.042Z,101044.50
2022-11-01T10:10:02.071Z,101061.19
2022-11-01T10:13:25.695Z,101063.75
2022-11-01T10:16:49.322Z,101059.09
2022-11-01T10:19:51.003Z,101053.22
2022-11-01T10:22:52.722Z,101054.03
2022-11-01T10:25:54.926Z,101065.78
2022-11-01T10:29:13.807Z,101073.69
2022-11-01T10:32:38.186Z,101071.47
2022-11-01T10:35:45.830Z,101081.09
2022-11-01T10:42:17.399Z,101088.94
2022-11-01T10:45:20.704Z,101092.25
2022-11-01T10:48:44.033Z,101097.09
2022-11-01T10:51:47.395Z,101100.97
2022-11-01T10:54:50.508Z,101117.25
2022-11-01T10:57:57.674Z,101106.16
2022-11-01T11:01:02.735Z,101110.25
2022-11-01T11:04:07.767Z,101109.84
2022-11-01T11:07:16.498Z,101105.19
2022-11-01T11:10:24.914Z,101117.66
2022-11-01T11:13:27.547Z,101108.63
2022-11-01T11:16:35.351Z,101114.81
2022-11-01T11:19:39.820Z,101105.09
2022-11-01T11:22:43.205Z,101110.31
2022-11-01T11:25:45.701Z,101109.81
2022-11-01T11:28:51.778Z,101118.31
2022-11-01T11:31:59.231Z,101115.34
2022-11-01T11:35:17.728Z,101123.84
2022-11-01T11:38:39.079Z,101120.19
2022-11-01T11:41:41.967Z,101131.53
2022-11-01T11:44:50.486Z,101144.59
2022-11-01T11:47:57.056Z,101133.94
2022-11-01T11:51:06.334Z,101141.69
2022-11-01T11:54:23.058Z,101147.59
2022-11-01T11:57:27.216Z,101142.63
2022-11-01T12:00:29.863Z,101140.06
2022-11-01T12:03:44.468Z,101138.25
2022-11-01T12:06:46.958Z,101131.16
2022-11-01T12:09:48.815Z,101147.41
2022-11-01T12:12:52.954Z,101145.19
2022-11-01T12:16:06.374Z,101141.09
2022-11-01T12:19:31.099Z,101153.56
2022-11-01T12:22:35.067Z,101148.34
2022-11-01T12:25:38.177Z,101164.72
2022-11-01T12:28:44.917Z,101155.78
2022-11-01T12:31:48.411Z,101168.63
2022-11-01T12:34:52.739Z,101160.84
2022-11-01T12:38:04.954Z,101174.69
2022-11-01T12:41:29.751Z,101167.00
2022-11-01T12:44:47.084Z,101171.78
2022-11-01T12:47:54.647Z,101163.28
2022-11-01T12:51:02.845Z,101164.38
2022-11-01T12:54:16.453Z,101171.72
2022-11-01T12:57:19.088Z,101174.53
2022-11-01T13:00:21.868Z,101161.22
2022-11-01T13:03:46.593Z,101168.19
2022-11-01T13:07:12.765Z,101174.03
2022-11-01T13:10:33.361Z,101161.44
2022-11-01T13:14:02.348Z,101168.75
2022-11-01T13:17:25.336Z,101169.88
2022-11-01T13:20:32.630Z,101174.41
2022-11-01T13:24:02.035Z,101170.16
2022-11-01T13:27:15.449Z,101176.63
2022-11-01T13:30:20.686Z,101186.50
2022-11-01T13:33:37.410Z,101182.25
2022-11-01T13:36:41.786Z,101185.09
2022-11-01T13:39:51.583Z,101197.91
2022-11-01T13:43:02.863Z,101201.84
2022-11-01T13:46:21.031Z,101198.41
2022-11-01T13:49:41.475Z,101199.50
2022-11-01T13:52:51.270Z,101194.41
2022-11-01T13:56:09.330Z,101190.25
2022-11-01T13:59:15.656Z,101189.53
2022-11-01T14:02:23.036Z,101199.41
2022-11-01T14:05:39.182Z,101200.28
2022-11-01T14:08:42.955Z,101196.63
2022-11-01T14:11:49.311Z,101188.69
2022-11-01T14:14:52.422Z,101197.59
2022-11-01T14:17:57.271Z,101197.72
2022-11-01T14:21:18.771Z,101203.94
2022-11-01T14:24:30.594Z,101200.41
2022-11-01T14:27:37.093Z,101204.06
2022-11-01T14:30:42.334Z,101209.56
2022-11-01T14:33:48.391Z,101202.75
2022-11-01T14:36:54.107Z,101207.25
2022-11-01T14:40:00.588Z,101209.19
2022-11-01T14:43:25.208Z,101208.47
2022-11-01T14:46:29.580Z,101204.91
2022-11-01T14:49:41.507Z,101200.66
2022-11-01T14:52:50.987Z,101199.94
2022-11-01T14:56:05.677Z,101205.53
2022-11-01T14:59:20.147Z,101201.16
2022-11-01T15:02:23.767Z,101203.13
2022-11-01T15:05:25.903Z,101211.44
2022-11-01T15:08:41.565Z,101209.94
2022-11-01T15:11:43.107Z,101195.09
2022-11-01T15:14:46.556Z,101203.38
2022-11-01T15:17:55.498Z,101204.63
2022-11-01T15:20:59.243Z,101210.38
2022-11-01T15:24:03.029Z,101203.50
2022-11-01T15:27:14.213Z,101201.09
2022-11-01T15:30:36.793Z,101210.34
2022-11-01T15:33:38.783Z,101217.91
2022-11-01T15:36:40.367Z,101215.59
2022-11-01T15:39:41.922Z,101225.00
2022-11-01T15:42:48.975Z,101225.50
2022-11-01T15:45:56.618Z,101221.31
2022-11-01T15:49:04.045Z,101219.16
2022-11-01T15:52:15.652Z,101225.84
2022-11-01T15:55:33.717Z,101231.19
2022-11-01T16:02:11.543Z,101238.22
2022-11-01T16:05:18.592Z,101234.06
2022-11-01T16:08:42.898Z,101237.00
2022-11-01T16:11:46.663Z,101241.84
2022-11-01T16:14:58.749Z,101236.94
2022-11-01T16:18:04.208Z,101239.16
2022-11-01T16:21:30.100Z,101240.31
2022-11-01T16:24:32.310Z,101239.06
2022-11-01T16:27:35.987Z,101249.34
2022-11-01T16:30:49.298Z,101243.25
2022-11-01T16:33:51.546Z,101243.56
2022-11-01T16:36:53.130Z,101243.09
2022-11-01T16:39:54.822Z,101251.59
2022-11-01T16:42:59.079Z,101257.44
2022-11-01T16:46:01.451Z,101261.41
2022-11-01T16:49:19.084Z,101260.06
2022-11-01T16:52:21.908Z,101270.28
2022-11-01T16:55:27.166Z,101267.22
2022-11-01T16:58:30.998Z,101268.53
2022-11-01T17:01:35.567Z,101271.47
2022-11-01T17:04:40.022Z,101274.34
2022-11-01T17:07:41.684Z,101266.69
2022-11-01T17:10:43.287Z,101267.75
2022-11-01T17:13:44.877Z,101267.97
2022-11-01T17:16:48.100Z,101277.97
2022-11-01T17:19:58.389Z,101276.47
2022-11-01T17:23:00.051Z,101272.31
2022-11-01T17:26:03.769Z,101275.94
2022-11-01T17:29:05.308Z,101275.34
2022-11-01T17:32:11.155Z,101270.06
2022-11-01T17:35:13.034Z,101273.22
2022-11-01T17:38:30.343Z,101275.16
2022-11-01T17:41:32.148Z,101277.06
2022-11-01T17:44:33.669Z,101288.00
2022-11-01T17:47:35.212Z,101275.56
2022-11-01T17:50:37.579Z,101273.56
2022-11-01T17:53:40.493Z,101288.56
2022-11-01T17:56:42.084Z,101286.81
2022-11-01T17:59:43.674Z,101286.09
2022-11-01T18:02:45.438Z,101281.69
2022-11-01T18:05:47.040Z,101286.41
2022-11-01T18:08:51.143Z,101287.34
2022-11-01T18:12:04.628Z,101282.88
2022-11-01T18:15:09.248Z,101291.09
2022-11-01T18:18:22.999Z,101285.88
2022-11-01T18:21:43.320Z,101286.97
2022-11-01T18:25:11.106Z,101289.72
2022-11-01T18:28:17.085Z,101280.97
2022-11-01T18:31:44.868Z,101289.13
2022-11-01T18:38:53.362Z,101290.53
2022-11-01T18:41:55.131Z,101296.97
2022-11-01T18:44:59.763Z,101298.03
2022-11-01T18:48:08.333Z,101292.78
2022-11-01T18:51:28.410Z,101293.63
2022-11-01T18:54:32.583Z,101288.41
2022-11-01T18:57:35.063Z,101293.75
2022-11-01T19:00:37.814Z,101295.34
2022-11-01T19:03:40.304Z,101297.16
2022-11-01T19:06:41.834Z,101289.16
2022-11-01T19:09:55.397Z,101292.69
2022-11-01T19:12:57.081Z,101303.47
2022-11-01T19:16:01.993Z,101301.66
2022-11-01T19:19:18.237Z,101299.84
2022-11-01T19:22:33.457Z,101291.59
2022-11-01T19:25:36.689Z,101299.50
2022-11-01T19:28:40.471Z,101291.47
2022-11-01T19:31:45.073Z,101298.66
2022-11-01T19:34:48.699Z,101292.56
2022-11-01T19:37:55.338Z,101298.78
2022-11-01T19:40:58.523Z,101295.34
2022-11-01T19:44:05.219Z,101295.22
2022-11-01T19:47:21.995Z,101289.16
2022-11-01T19:50:44.628Z,101296.44
2022-11-01T19:53:46.490Z,101285.72
2022-11-01T19:56:48.031Z,101285.72
2022-11-01T19:59:49.682Z,101276.84
2022-11-01T20:02:57.471Z,101291.06
2022-11-01T20:05:59.033Z,101294.72
2022-11-01T20:09:26.698Z,101290.44
2022-11-01T20:12:28.255Z,101295.03
2022-11-01T20:15:29.981Z,101289.78
2022-11-01T20:18:31.552Z,101284.22
2022-11-01T20:21:33.387Z,101285.81
2022-11-01T20:24:34.893Z,101283.78
2022-11-01T20:27:36.451Z,101284.66
2022-11-01T20:30:37.999Z,101281.84
2022-11-01T20:33:39.630Z,101289.66
2022-11-01T20:36:41.279Z,101284.19
2022-11-01T20:39:42.859Z,101284.19
2022-11-01T20:42:44.484Z,101282.50
2022-11-01T20:45:46.065Z,101273.69
2022-11-01T20:48:48.289Z,101283.44
2022-11-01T20:51:49.826Z,101286.25
2022-11-01T20:54:51.937Z,101284.31
2022-11-01T20:57:53.702Z,101291.69
2022-11-01T21:00:55.994Z,101281.19
2022-11-01T21:03:57.858Z,101288.66
2022-11-01T21:06:59.404Z,101283.28
2022-11-01T21:10:01.012Z,101280.97
2022-11-01T21:13:07.432Z,101278.50
2022-11-01T21:16:20.763Z,101276.69
2022-11-01T21:19:25.587Z,101280.56
2022-11-01T21:22:27.440Z,101274.47
2022-11-01T21:25:29.159Z,101273.59
2022-11-01T21:28:34.237Z,101270.28
2022-11-01T21:31:39.087Z,101275.03
2022-11-01T21:34:43.171Z,101265.41
2022-11-01T21:37:44.695Z,101267.56
2022-11-01T21:40:46.262Z,101269.44
2022-11-01T21:43:47.782Z,101270.66
2022-11-01T21:46:54.151Z,101270.66
2022-11-01T21:49:56.127Z,101268.09
2022-11-01T21:52:57.779Z,101264.03
2022-11-01T21:55:59.336Z,101265.00
2022-11-01T21:59:00.866Z,101251.75
2022-11-01T22:02:03.590Z,101251.09
2022-11-01T22:05:05.568Z,101255.91
2022-11-01T22:08:07.117Z,101234.75
2022-11-01T22:11:08.640Z,101240.19
2022-11-01T22:14:11.250Z,101235.84
2022-11-01T22:17:12.763Z,101236.13
2022-11-01T22:20:14.945Z,101239.06
2022-11-01T22:23:16.523Z,101233.78
2022-11-01T22:26:18.247Z,101227.81
2022-11-01T22:29:19.800Z,101228.78
2022-11-01T22:32:21.371Z,101231.66
2022-11-01T22:35:22.917Z,101234.34
2022-11-01T22:38:29.079Z,101229.31
2022-11-01T22:41:35.092Z,101227.09
2022-11-01T22:44:37.825Z,101228.34
2022-11-01T22:47:39.532Z,101233.16
2022-11-01T22:50:41.085Z,101226.94
2022-11-01T22:53:42.688Z,101231.53
2022-11-01T22:56:44.686Z,101226.31
2022-11-01T22:59:51.239Z,101219.25
2022-11-01T23:02:59.765Z,101221.19
2022-11-01T23:06:15.467Z,101224.81
2022-11-01T23:09:19.906Z,101222.25
2022-11-01T23:12:42.832Z,101232.06
2022-11-01T23:15:44.824Z,101227.47
2022-11-01T23:18:46.392Z,101230.34
2022-11-01T23:21:48.326Z,101217.31
2022-11-01T23:24:52.026Z,101206.97
2022-11-01T23:27:54.296Z,101213.25
2022-11-01T23:30:57.282Z,101211.56
2022-11-01T23:33:58.807Z,101204.69
2022-11-01T23:37:00.462Z,101211.00
2022-11-01T23:40:02.390Z,101203.09
2022-11-01T23:43:24.184Z,101208.44
2022-11-01T23:46:26.694Z,101201.47
2022-11-01T23:49:31.802Z,101192.72
2022-11-01T23:52:40.302Z,101191.91
2022-11-01T23:55:48.536Z,101190.16
2022-11-01T23:58:55.891Z,101182.28
